Airport Name : Nome

Other Name : Nome

ICAO : PAOM

IATA : OME

FAA : POME

Latitude : 64.512203

Longitude : -165.445247

Country : United States

Local Date and Time : 23 Jan 2021 20:35

 

TAF (Terminal Aerodrome Forecast)

 

METAR (METeorological Aerodrome Report)

PAOM 240517Z 10007KT 4SM -SN BR OVC021 M04/M06 A2968 RMK AO2 P0000 T10441061

PAOM 240453Z 09005KT 2 1/2SM -SN BR OVC022 M04/M06 A2967 RMK AO2 SLP048 P0000 T10391056

PAOM 240420Z 10009KT 2SM -SN BR OVC023 M03/M05 A2966 RMK AO2 P0000 T10331050

PAOM 240353Z 10005KT 3SM -SN BR OVC022 M03/M05 A2965 RMK AO2 SLP040 P0000 T10331050

PAOM 240326Z 00000KT 4SM -SN BR SCT004 OVC018 M04/M06 A2963 RMK AO2 P0000 T10441061

PAOM 240311Z 00000KT 4SM -SN BR BKN004 OVC020 M04/M06 A2963 RMK AO2 P0000 T10441056

PAOM 240302Z 24003KT 3SM -SN BR OVC005 M04/M06 A2962 RMK AO2 P0000 T10441056

PAOM 240253Z 23003KT 2SM -SN BR BKN005 OVC027 M04/M06 A2962 RMK AO2 SLP029 P0000 60001 T10441056 53012

PAOM 240229Z 26003KT 1 3/4SM -SN BR OVC005 M04/M06 A2961 RMK AO2 CIG 003V007 P0000 T10391056

PAOM 240217Z 24003KT 2SM -SN BR OVC003 M04/M05 A2961 RMK AO2 P0000 T10391050

PAOM 240153Z 24003KT 3SM -SN BR SCT003 BKN010 OVC049 M03/M04 A2960 RMK AO2 SLP023 P0000 T10331044

PAOM 240143Z 22003KT 4SM -SN BR BKN005 BKN010 OVC049 M03/M04 A2960 RMK AO2 P0000 T10331044

To Charter a Jet Click here.